createdAt,value
2017-12-19T00:01:47.173Z,16.73
2017-12-19T00:04:13.451Z,19.17
2017-12-19T00:06:41.445Z,19.23
2017-12-19T00:09:07.683Z,17.55
2017-12-19T00:11:34.639Z,20.45
2017-12-19T00:14:01.589Z,20.12
2017-12-19T00:16:28.530Z,17.80
2017-12-19T00:18:55.843Z,26.25
2017-12-19T00:21:23.040Z,21.77
2017-12-19T00:23:50.014Z,17.62
2017-12-19T00:26:16.535Z,23.75
2017-12-19T00:28:42.795Z,19.27
2017-12-19T00:31:09.023Z,20.65
2017-12-19T00:33:35.228Z,18.85
2017-12-19T00:36:01.442Z,20.10
2017-12-19T00:38:28.390Z,18.83
2017-12-19T00:40:54.631Z,20.58
2017-12-19T00:43:20.873Z,18.58
2017-12-19T00:45:48.183Z,22.62
2017-12-19T00:48:14.364Z,18.73
2017-12-19T00:50:40.594Z,20.12
2017-12-19T00:53:07.435Z,19.33
2017-12-19T00:55:33.650Z,15.20
2017-12-19T00:58:00.077Z,17.17
2017-12-19T01:00:26.280Z,16.15
2017-12-19T01:02:53.510Z,17.98
2017-12-19T01:05:19.797Z,16.83
2017-12-19T01:07:46.020Z,16.45
2017-12-19T01:10:12.279Z,18.00
2017-12-19T01:12:38.473Z,17.77
2017-12-19T01:15:05.420Z,16.40
2017-12-19T01:17:31.723Z,18.67
2017-12-19T01:29:43.681Z,14.25
2017-12-19T01:32:09.890Z,18.42
2017-12-19T01:34:36.563Z,16.42
2017-12-19T01:37:03.514Z,20.58
2017-12-19T01:39:31.224Z,19.15
2017-12-19T01:41:57.408Z,16.62
2017-12-19T01:44:24.408Z,18.12
2017-12-19T01:46:50.626Z,15.93
2017-12-19T01:49:17.176Z,16.75
2017-12-19T01:51:43.387Z,17.07
2017-12-19T01:54:09.599Z,15.60
2017-12-19T01:56:35.822Z,14.50
2017-12-19T01:59:02.064Z,18.37
2017-12-19T02:01:28.294Z,18.77
2017-12-19T02:03:54.535Z,18.75
2017-12-19T02:06:20.741Z,17.60
2017-12-19T02:08:46.978Z,18.13
2017-12-19T02:11:13.346Z,17.50
2017-12-19T02:13:39.566Z,18.67
2017-12-19T02:16:05.780Z,17.80
2017-12-19T02:18:32.056Z,20.15
2017-12-19T02:20:58.623Z,19.48
2017-12-19T02:23:24.983Z,21.60
2017-12-19T02:25:51.265Z,19.05
2017-12-19T02:28:19.030Z,18.10
2017-12-19T02:30:46.012Z,21.08
2017-12-19T02:33:12.235Z,23.30
2017-12-19T02:35:38.474Z,23.17
2017-12-19T02:38:04.757Z,21.15
2017-12-19T02:40:31.691Z,21.85
2017-12-19T02:43:10.071Z,25.67
2017-12-19T02:45:36.302Z,24.58
2017-12-19T02:48:02.559Z,21.45
2017-12-19T02:50:28.764Z,23.27
2017-12-19T02:52:54.986Z,20.60
2017-12-19T02:55:22.022Z,19.65
2017-12-19T02:57:48.252Z,17.23
2017-12-19T03:00:14.582Z,20.00
2017-12-19T03:02:40.785Z,19.52
2017-12-19T03:05:07.783Z,20.58
2017-12-19T03:07:34.000Z,18.23
2017-12-19T03:10:00.195Z,18.77
2017-12-19T03:12:26.424Z,20.83
2017-12-19T03:14:53.411Z,24.33
2017-12-19T03:17:19.638Z,23.12
2017-12-19T03:19:45.836Z,23.12
2017-12-19T03:22:12.021Z,21.70
2017-12-19T03:24:38.255Z,24.98
2017-12-19T03:27:04.462Z,23.70
2017-12-19T03:29:30.763Z,21.85
2017-12-19T03:31:57.059Z,24.83
2017-12-19T03:34:23.980Z,22.95
2017-12-19T03:36:50.257Z,21.80
2017-12-19T03:39:16.509Z,22.80
2017-12-19T03:41:42.746Z,26.23
2017-12-19T03:44:08.927Z,21.77
2017-12-19T03:46:35.878Z,23.55
2017-12-19T03:49:02.874Z,22.55
2017-12-19T03:51:29.092Z,23.87
2017-12-19T03:53:55.313Z,20.90
2017-12-19T03:56:21.511Z,22.60
2017-12-19T03:58:48.516Z,19.90
2017-12-19T04:01:14.749Z,20.75
2017-12-19T04:03:40.956Z,22.70
2017-12-19T04:06:07.844Z,21.35
2017-12-19T04:08:34.812Z,20.50
2017-12-19T04:11:02.520Z,20.88
2017-12-19T04:13:28.939Z,19.90
2017-12-19T04:15:55.282Z,21.10
2017-12-19T04:18:21.542Z,17.58
2017-12-19T04:20:47.788Z,18.73
2017-12-19T04:23:14.720Z,22.87
2017-12-19T04:25:41.681Z,19.70
2017-12-19T04:28:08.586Z,18.45
2017-12-19T04:30:34.815Z,20.33
2017-12-19T04:33:01.196Z,21.98
2017-12-19T04:35:28.047Z,25.05
2017-12-19T04:37:54.257Z,24.87
2017-12-19T04:40:21.550Z,22.85
2017-12-19T04:42:47.743Z,23.90
2017-12-19T04:45:14.824Z,20.20
2017-12-19T04:47:41.035Z,24.20
2017-12-19T04:50:07.900Z,25.85
2017-12-19T04:52:34.120Z,26.65
2017-12-19T04:55:00.340Z,22.85
2017-12-19T04:57:26.553Z,23.73
2017-12-19T04:59:53.494Z,28.70
2017-12-19T05:02:20.557Z,25.85
2017-12-19T05:04:46.802Z,26.65
2017-12-19T05:07:13.068Z,27.33
2017-12-19T05:09:39.271Z,22.90
2017-12-19T05:12:05.500Z,25.67
2017-12-19T05:14:31.737Z,24.42
2017-12-19T05:16:58.876Z,26.40
2017-12-19T05:19:25.104Z,25.10
2017-12-19T05:21:51.348Z,27.73
2017-12-19T05:24:17.621Z,28.67
2017-12-19T05:26:44.565Z,24.67
2017-12-19T05:29:10.822Z,28.92
2017-12-19T05:31:37.032Z,29.42
2017-12-19T05:34:04.056Z,25.37
2017-12-19T05:36:30.283Z,30.55
2017-12-19T05:38:56.525Z,28.62
2017-12-19T05:41:22.806Z,26.15
2017-12-19T05:43:49.002Z,28.40
2017-12-19T05:46:15.992Z,26.60
2017-12-19T05:48:42.251Z,25.95
2017-12-19T05:51:09.516Z,24.55
2017-12-19T05:53:35.744Z,28.50
2017-12-19T05:56:02.063Z,25.62
2017-12-19T05:58:28.267Z,33.45
2017-12-19T06:00:54.476Z,29.83
2017-12-19T06:03:20.757Z,26.12
2017-12-19T06:05:47.300Z,29.15
2017-12-19T06:08:13.554Z,35.03
2017-12-19T06:10:39.728Z,28.83
2017-12-19T06:13:05.934Z,30.60
2017-12-19T06:15:32.696Z,28.58
2017-12-19T06:17:58.949Z,25.10
2017-12-19T06:20:25.240Z,28.05
2017-12-19T06:22:51.687Z,29.27
2017-12-19T06:25:17.978Z,30.10
2017-12-19T06:27:45.073Z,29.02
2017-12-19T06:30:11.381Z,29.90
2017-12-19T06:32:37.582Z,26.58
2017-12-19T06:35:05.251Z,33.22
2017-12-19T06:37:31.548Z,33.70
2017-12-19T06:39:58.537Z,34.55
2017-12-19T06:42:24.770Z,30.67
2017-12-19T06:44:50.988Z,31.30
2017-12-19T06:57:02.225Z,35.95
2017-12-19T06:59:29.299Z,41.05
2017-12-19T07:01:55.562Z,34.95
2017-12-19T07:04:22.583Z,36.50
2017-12-19T07:06:48.800Z,33.65
2017-12-19T07:09:15.021Z,29.08
2017-12-19T07:11:41.277Z,34.15
2017-12-19T07:14:07.516Z,33.33
2017-12-19T07:16:34.702Z,30.88
2017-12-19T07:19:00.931Z,34.05
2017-12-19T07:21:27.246Z,27.85
2017-12-19T07:23:53.452Z,32.28
2017-12-19T07:26:19.633Z,31.67
2017-12-19T07:28:46.718Z,32.58
2017-12-19T07:31:13.725Z,34.00
2017-12-19T07:33:40.698Z,31.37
2017-12-19T07:36:06.921Z,31.55
2017-12-19T07:38:33.150Z,33.63
2017-12-19T07:40:59.380Z,29.95
2017-12-19T07:43:25.659Z,30.95
2017-12-19T07:45:52.624Z,29.77
2017-12-19T07:48:18.892Z,26.37
2017-12-19T07:50:45.903Z,31.12
2017-12-19T07:53:12.119Z,28.27
2017-12-19T07:55:38.365Z,28.58
2017-12-19T07:58:05.331Z,30.33
2017-12-19T08:00:31.576Z,27.60
2017-12-19T08:02:57.843Z,29.27
2017-12-19T08:05:25.113Z,28.20
2017-12-19T08:07:51.378Z,25.45
2017-12-19T08:10:17.960Z,28.75
2017-12-19T08:12:44.215Z,24.87
2017-12-19T08:15:10.472Z,28.60
2017-12-19T08:17:37.466Z,28.77
2017-12-19T08:20:03.965Z,25.65
2017-12-19T08:22:30.190Z,23.17
2017-12-19T08:24:56.395Z,20.88
2017-12-19T08:27:23.383Z,24.63
2017-12-19T08:29:49.617Z,19.80
2017-12-19T08:32:15.829Z,20.63
2017-12-19T08:34:42.016Z,20.83
2017-12-19T08:37:10.006Z,22.58
2017-12-19T08:39:36.930Z,16.97
2017-12-19T08:42:04.021Z,19.70
2017-12-19T08:44:30.335Z,16.08
2017-12-19T08:46:57.243Z,17.75
2017-12-19T08:49:23.463Z,19.02
2017-12-19T08:51:49.677Z,16.80
2017-12-19T08:54:16.667Z,17.60
2017-12-19T08:56:42.880Z,15.80
2017-12-19T08:59:09.139Z,15.20
2017-12-19T09:01:36.112Z,15.93
2017-12-19T09:04:02.327Z,19.23
2017-12-19T09:06:29.321Z,20.60
2017-12-19T09:08:55.546Z,16.50
2017-12-19T09:11:21.771Z,14.63
2017-12-19T09:13:47.989Z,16.20
2017-12-19T09:16:14.218Z,16.13
2017-12-19T09:18:40.449Z,15.57
2017-12-19T09:21:07.220Z,16.00
2017-12-19T09:23:33.535Z,18.37
2017-12-19T09:26:00.714Z,15.83
2017-12-19T09:28:26.877Z,16.00
2017-12-19T09:30:53.064Z,14.40
2017-12-19T09:33:19.233Z,14.40
2017-12-19T09:35:46.442Z,13.50
2017-12-19T09:38:12.606Z,13.87
2017-12-19T09:40:39.541Z,14.37
2017-12-19T09:43:07.182Z,13.73
2017-12-19T09:45:33.717Z,12.03
2017-12-19T09:48:00.774Z,14.20
2017-12-19T09:50:27.051Z,14.63
2017-12-19T09:52:53.299Z,14.23
2017-12-19T09:55:20.244Z,14.57
2017-12-19T09:57:46.454Z,9.93
2017-12-19T10:00:12.882Z,11.47
2017-12-19T10:12:24.113Z,13.67
2017-12-19T10:14:50.289Z,14.23
2017-12-19T10:17:16.563Z,12.90
2017-12-19T10:19:44.368Z,12.50
2017-12-19T10:22:10.579Z,14.80
2017-12-19T10:24:36.813Z,12.23
2017-12-19T10:27:03.013Z,12.17
2017-12-19T10:29:29.973Z,13.50
2017-12-19T10:31:56.190Z,15.10
2017-12-19T10:34:23.303Z,14.07
2017-12-19T10:36:49.549Z,11.10
2017-12-19T10:39:15.841Z,13.90
2017-12-19T10:41:42.061Z,11.63
2017-12-19T10:44:08.298Z,16.13
2017-12-19T10:46:34.545Z,8.00
2017-12-19T10:49:00.757Z,10.37
2017-12-19T10:51:26.929Z,8.87
2017-12-19T10:53:53.125Z,6.17
2017-12-19T10:56:19.327Z,9.80
2017-12-19T10:58:45.522Z,10.43
2017-12-19T11:01:12.520Z,9.70
2017-12-19T11:03:38.722Z,12.03
2017-12-19T11:06:04.945Z,9.40
2017-12-19T11:08:31.188Z,13.07
2017-12-19T11:10:57.370Z,10.77
2017-12-19T11:13:23.588Z,11.13
2017-12-19T11:15:49.748Z,13.30
2017-12-19T11:18:16.721Z,18.13
2017-12-19T11:20:42.882Z,12.47
2017-12-19T11:23:09.112Z,14.00
2017-12-19T11:25:35.314Z,13.80
2017-12-19T11:28:01.619Z,15.40
2017-12-19T11:30:28.858Z,13.10
2017-12-19T11:32:55.880Z,15.43
2017-12-19T11:35:22.994Z,14.47
2017-12-19T11:37:49.851Z,15.93
2017-12-19T11:40:16.121Z,16.23
2017-12-19T11:42:43.106Z,14.50
2017-12-19T11:45:09.286Z,14.93
2017-12-19T11:47:35.587Z,17.87
2017-12-19T11:50:01.793Z,22.87
2017-12-19T11:52:28.018Z,20.63
2017-12-19T11:54:54.262Z,23.47
2017-12-19T11:57:21.423Z,21.33
2017-12-19T11:59:47.757Z,24.00
2017-12-19T12:02:15.739Z,22.03
2017-12-19T12:04:56.864Z,21.97
2017-12-19T12:07:23.851Z,23.27
2017-12-19T12:09:50.078Z,28.50
2017-12-19T12:12:16.326Z,24.63
2017-12-19T12:14:42.539Z,28.37
2017-12-19T12:17:08.739Z,26.10
2017-12-19T12:19:34.923Z,27.70
2017-12-19T12:22:01.175Z,29.77
2017-12-19T12:24:28.169Z,29.87
2017-12-19T12:26:54.399Z,31.07
2017-12-19T12:29:35.574Z,28.53
2017-12-19T12:32:01.802Z,29.10
2017-12-19T12:34:28.038Z,27.35
2017-12-19T12:36:54.258Z,25.92
2017-12-19T12:39:20.437Z,27.70
2017-12-19T12:41:47.413Z,28.90
2017-12-19T12:44:13.752Z,24.87
2017-12-19T12:46:39.966Z,27.47
2017-12-19T12:49:06.201Z,29.13
2017-12-19T12:51:32.400Z,28.67
2017-12-19T12:53:59.371Z,54.17
2017-12-19T12:56:26.002Z,38.53
2017-12-19T12:58:52.297Z,28.63
2017-12-19T13:01:18.950Z,27.70
2017-12-19T13:03:45.962Z,36.35
2017-12-19T13:06:12.237Z,28.50
2017-12-19T13:08:39.232Z,28.50
2017-12-19T13:11:05.655Z,26.73
2017-12-19T13:13:31.887Z,29.02
2017-12-19T13:15:58.092Z,30.62
2017-12-19T13:18:24.308Z,26.50
2017-12-19T13:20:51.274Z,27.08
2017-12-19T13:23:17.453Z,30.48
2017-12-19T13:25:43.643Z,31.77
2017-12-19T13:28:10.139Z,32.10
2017-12-19T13:30:37.098Z,29.85
2017-12-19T13:33:03.305Z,27.65
2017-12-19T13:35:30.219Z,28.15
2017-12-19T13:37:56.432Z,34.13
2017-12-19T13:40:22.640Z,30.67
2017-12-19T13:42:50.534Z,35.25
2017-12-19T13:45:16.854Z,36.20
2017-12-19T13:47:43.074Z,29.65
2017-12-19T13:50:10.006Z,28.73
2017-12-19T13:52:36.203Z,27.25
2017-12-19T13:55:02.482Z,31.60
2017-12-19T13:57:29.548Z,31.17
2017-12-19T13:59:55.853Z,23.50
2017-12-19T14:02:22.050Z,25.57
2017-12-19T14:04:49.386Z,26.10
2017-12-19T14:07:15.601Z,24.97
2017-12-19T14:09:41.923Z,27.75
2017-12-19T14:12:08.921Z,24.23
2017-12-19T14:14:35.862Z,25.77
2017-12-19T14:17:03.746Z,27.60
2017-12-19T14:19:30.772Z,25.43
2017-12-19T14:21:56.996Z,21.87
2017-12-19T14:24:23.195Z,19.10
2017-12-19T14:26:49.422Z,21.47
2017-12-19T14:29:15.611Z,21.87
2017-12-19T14:31:42.524Z,23.97
2017-12-19T14:34:09.533Z,22.10
2017-12-19T14:36:35.752Z,25.93
2017-12-19T14:39:02.083Z,21.70
2017-12-19T14:41:28.281Z,23.03
2017-12-19T14:43:55.817Z,26.70
2017-12-19T14:46:22.046Z,28.63
2017-12-19T14:48:48.351Z,24.08
2017-12-19T14:51:15.404Z,24.10
2017-12-19T14:53:42.403Z,27.93
2017-12-19T14:56:08.710Z,26.53
2017-12-19T14:58:35.059Z,29.37
2017-12-19T15:01:02.309Z,28.08
2017-12-19T15:03:29.367Z,25.60
2017-12-19T15:05:56.224Z,26.48
2017-12-19T15:08:22.424Z,29.00
2017-12-19T15:10:50.352Z,25.98
2017-12-19T15:13:16.664Z,27.37
2017-12-19T15:15:43.099Z,27.87
2017-12-19T15:18:09.322Z,25.52
2017-12-19T15:20:35.597Z,29.90
2017-12-19T15:23:02.059Z,30.20
2017-12-19T15:25:29.045Z,27.95
2017-12-19T15:27:55.317Z,23.75
2017-12-19T15:30:21.634Z,27.17
2017-12-19T15:32:47.883Z,27.90
2017-12-19T15:35:14.805Z,20.40
2017-12-19T15:37:41.917Z,23.48
2017-12-19T15:40:08.160Z,22.83
2017-12-19T15:42:34.461Z,22.42
2017-12-19T15:45:00.690Z,25.00
2017-12-19T15:47:27.059Z,20.48
2017-12-19T15:49:53.329Z,22.50
2017-12-19T15:52:20.308Z,23.00
2017-12-19T15:54:46.647Z,20.40
2017-12-19T15:57:12.862Z,20.77
2017-12-19T15:59:39.018Z,23.90
2017-12-19T16:02:05.227Z,21.00
2017-12-19T16:04:32.232Z,23.30
2017-12-19T16:06:58.776Z,22.93
2017-12-19T16:09:25.741Z,22.10
2017-12-19T16:11:52.687Z,22.60
2017-12-19T16:14:19.606Z,24.80
2017-12-19T16:16:45.830Z,23.17
2017-12-19T16:19:12.007Z,28.23
2017-12-19T16:21:38.354Z,25.13
2017-12-19T16:24:04.546Z,27.27
2017-12-19T16:26:31.510Z,24.93
2017-12-19T16:28:57.721Z,28.80
2017-12-19T16:31:24.739Z,27.03
2017-12-19T16:33:50.964Z,27.17
2017-12-19T16:36:17.285Z,27.03
2017-12-19T16:38:43.462Z,32.17
2017-12-19T16:41:09.898Z,28.30
2017-12-19T16:43:36.180Z,27.90
2017-12-19T16:46:02.378Z,30.37
2017-12-19T16:48:28.658Z,25.57
2017-12-19T16:50:54.836Z,25.67
2017-12-19T16:53:21.071Z,23.17
2017-12-19T16:55:47.313Z,27.10
2017-12-19T16:58:13.529Z,23.23
2017-12-19T17:00:39.772Z,20.73
2017-12-19T17:03:06.042Z,20.73
2017-12-19T17:05:32.564Z,22.60
2017-12-19T17:07:58.894Z,25.73
2017-12-19T17:10:26.112Z,22.92
2017-12-19T17:12:52.766Z,23.83
2017-12-19T17:15:20.509Z,24.30
2017-12-19T17:17:46.984Z,25.48
2017-12-19T17:20:13.144Z,25.58
2017-12-19T17:22:39.416Z,17.33
2017-12-19T17:25:05.608Z,22.40
2017-12-19T17:27:32.548Z,24.00
2017-12-19T17:29:58.834Z,24.03
2017-12-19T17:32:25.209Z,23.23
2017-12-19T17:34:51.471Z,23.60
2017-12-19T17:37:17.664Z,27.77
2017-12-19T17:39:44.668Z,25.67
2017-12-19T17:42:10.929Z,25.60
2017-12-19T17:44:37.978Z,27.60
2017-12-19T17:47:04.947Z,21.77
2017-12-19T17:49:31.245Z,24.13
2017-12-19T17:51:57.466Z,26.33
2017-12-19T17:54:23.672Z,22.83
2017-12-19T17:56:49.935Z,24.33
2017-12-19T17:59:16.133Z,26.10
2017-12-19T18:01:43.310Z,26.00
2017-12-19T18:04:09.866Z,22.10
2017-12-19T18:06:51.750Z,20.77
2017-12-19T18:09:18.748Z,19.30
2017-12-19T18:11:44.953Z,23.10
2017-12-19T18:14:11.171Z,18.50
2017-12-19T18:16:38.136Z,17.30
2017-12-19T18:19:04.338Z,11.93
2017-12-19T18:21:31.308Z,13.90
2017-12-19T18:23:57.737Z,19.83
2017-12-19T18:26:25.172Z,16.70
2017-12-19T18:28:51.504Z,17.57
2017-12-19T18:31:18.475Z,18.73
2017-12-19T18:33:44.724Z,20.73
2017-12-19T18:36:10.920Z,24.03
2017-12-19T18:38:38.000Z,21.57
2017-12-19T18:41:04.963Z,29.20
2017-12-19T18:43:32.861Z,28.30
2017-12-19T18:45:59.116Z,34.10
2017-12-19T18:48:25.337Z,30.52
2017-12-19T18:50:52.270Z,31.87
2017-12-19T18:53:19.290Z,33.73
2017-12-19T18:55:45.560Z,29.52
2017-12-19T18:58:12.525Z,33.37
2017-12-19T19:00:38.789Z,28.80
2017-12-19T19:03:05.056Z,30.20
2017-12-19T19:05:32.520Z,27.40
2017-12-19T19:07:59.532Z,27.47
2017-12-19T19:10:25.804Z,27.67
2017-12-19T19:12:52.073Z,21.95
2017-12-19T19:15:18.331Z,26.23
2017-12-19T19:17:44.539Z,24.13
2017-12-19T19:20:10.813Z,25.13
2017-12-19T19:22:41.539Z,20.47
2017-12-19T19:25:08.664Z,21.83
2017-12-19T19:27:35.885Z,23.90
2017-12-19T19:30:02.299Z,22.30
2017-12-19T19:32:29.214Z,22.20
2017-12-19T19:34:55.430Z,20.90
2017-12-19T19:37:21.698Z,20.75
2017-12-19T19:39:47.983Z,19.77
2017-12-19T19:42:14.201Z,20.90
2017-12-19T19:44:40.399Z,21.30
2017-12-19T19:47:06.619Z,22.37
2017-12-19T19:49:33.656Z,22.17
2017-12-19T19:52:00.631Z,20.03
2017-12-19T19:54:26.822Z,17.93
2017-12-19T19:56:53.002Z,16.57
2017-12-19T19:59:20.198Z,15.73
2017-12-19T20:01:46.971Z,14.40
2017-12-19T20:04:13.176Z,14.77
2017-12-19T20:06:40.175Z,15.20
2017-12-19T20:09:06.460Z,17.77
2017-12-19T20:11:33.432Z,14.57
2017-12-19T20:13:59.849Z,18.23
2017-12-19T20:16:26.916Z,15.63
2017-12-19T20:18:53.299Z,16.63
2017-12-19T20:21:19.566Z,12.70
2017-12-19T20:23:47.256Z,19.40
2017-12-19T20:26:13.474Z,16.50
2017-12-19T20:28:39.723Z,14.37
2017-12-19T20:31:06.009Z,16.60
2017-12-19T20:33:33.123Z,17.27
2017-12-19T20:35:59.329Z,19.13
2017-12-19T20:38:25.680Z,16.52
2017-12-19T20:40:51.952Z,15.57
2017-12-19T20:43:18.945Z,16.00
2017-12-19T20:45:45.170Z,15.43
2017-12-19T20:48:11.450Z,12.40
2017-12-19T20:50:38.511Z,13.13
2017-12-19T20:53:04.999Z,15.40
2017-12-19T20:55:32.637Z,15.13
2017-12-19T20:57:59.044Z,14.77
2017-12-19T21:00:26.827Z,15.23
2017-12-19T21:02:53.044Z,16.77
2017-12-19T21:05:19.265Z,15.83
2017-12-19T21:07:46.266Z,16.60
2017-12-19T21:10:13.471Z,16.60
2017-12-19T21:12:40.204Z,14.93
2017-12-19T21:15:06.515Z,16.33
2017-12-19T21:17:33.605Z,18.10
2017-12-19T21:19:59.867Z,19.90
2017-12-19T21:22:26.154Z,17.35
2017-12-19T21:24:52.417Z,18.00
2017-12-19T21:27:21.833Z,17.10
2017-12-19T21:29:48.029Z,19.90
2017-12-19T21:32:14.215Z,20.63
2017-12-19T21:34:42.736Z,17.90
2017-12-19T21:37:09.464Z,22.00
2017-12-19T21:39:35.771Z,19.65
2017-12-19T21:42:04.016Z,20.33
2017-12-19T21:44:30.266Z,21.50
2017-12-19T21:46:56.521Z,21.98
2017-12-19T21:49:22.788Z,21.55
2017-12-19T21:51:49.004Z,21.60
2017-12-19T21:54:15.250Z,23.37
2017-12-19T21:56:41.472Z,23.30
2017-12-19T21:59:08.392Z,26.17
2017-12-19T22:01:36.354Z,25.13
2017-12-19T22:04:02.583Z,19.75
2017-12-19T22:06:28.942Z,20.33
2017-12-19T22:09:00.762Z,24.40
2017-12-19T22:11:27.616Z,19.43
2017-12-19T22:13:57.025Z,17.10
2017-12-19T22:16:24.892Z,15.73
2017-12-19T22:18:51.822Z,13.73
2017-12-19T22:21:20.095Z,17.73
2017-12-19T22:23:46.334Z,16.47
2017-12-19T22:26:14.598Z,17.37
2017-12-19T22:28:41.887Z,15.17
2017-12-19T22:31:08.160Z,14.57
2017-12-19T22:33:35.035Z,18.50
2017-12-19T22:36:02.165Z,15.38
2017-12-19T22:38:28.467Z,17.60
2017-12-19T22:40:56.023Z,17.87
2017-12-19T22:43:22.273Z,25.40
2017-12-19T22:45:49.540Z,25.17
2017-12-19T22:48:17.184Z,29.80
2017-12-19T22:50:43.471Z,33.93
2017-12-19T22:53:09.775Z,31.27
2017-12-19T22:55:35.984Z,33.67
2017-12-19T22:58:04.755Z,39.33
2017-12-19T23:00:31.097Z,33.33
2017-12-19T23:02:58.775Z,31.60
2017-12-19T23:05:25.695Z,31.33
2017-12-19T23:07:51.958Z,39.40
2017-12-19T23:10:18.672Z,32.97
2017-12-19T23:12:47.004Z,34.78
2017-12-19T23:15:13.221Z,35.07
2017-12-19T23:17:42.515Z,28.17
2017-12-19T23:20:09.478Z,31.80
2017-12-19T23:22:36.647Z,34.87
2017-12-19T23:25:03.888Z,39.23
2017-12-19T23:27:31.603Z,39.13
2017-12-19T23:29:58.440Z,37.10
2017-12-19T23:32:24.685Z,30.57
2017-12-19T23:34:55.328Z,38.40
2017-12-19T23:37:21.575Z,34.53
2017-12-19T23:39:48.610Z,31.53
2017-12-19T23:42:15.604Z,38.13
2017-12-19T23:44:43.211Z,35.65
